Time;durP1;ratioP1;P1;durP2;ratioP2;P2;SDS_P1;SDS_P2;PMS_P1;PMS_P2;Temp;Humidity;BMP_temperature;BMP_pressure;BME280_temperature;BME280_humidity;BME280_pressure;Samples;Min_cycle;Max_cycle;Signal;HPM_P1;HPM_P2
2024/02/04 00:00:28;;;;;;;29.58;9.13;;;;;;;13.42;87.15;102496.50;5030736;28;20452;-48
2024/02/04 00:02:53;;;;;;;29.92;8.77;;;;;;;13.84;85.30;102495.91;5030761;28;20083;-46
2024/02/04 00:05:19;;;;;;;31.50;8.82;;;;;;;13.63;85.56;102491.84;5031663;28;20160;-49
2024/02/04 00:07:45;;;;;;;27.23;8.20;;;;;;;13.71;85.07;102498.19;5030962;28;20061;-49
2024/02/04 00:10:11;;;;;;;31.77;9.02;;;;;;;13.95;84.66;102492.69;5032050;28;20120;-50
2024/02/04 00:12:36;;;;;;;25.30;7.78;;;;;;;13.86;85.39;102486.31;5031636;28;20056;-46
2024/02/04 00:15:04;;;;;;;25.33;8.68;;;;;;;13.21;86.89;102491.56;5031373;28;20038;-46
2024/02/04 00:17:31;;;;;;;28.60;9.48;;;;;;;13.47;86.11;102494.03;5031468;28;20037;-49
2024/02/04 00:19:57;;;;;;;29.42;9.00;;;;;;;13.61;85.74;102495.28;5030589;28;20030;-47
2024/02/04 00:22:22;;;;;;;28.20;9.25;;;;;;;13.72;85.88;102481.59;5029996;28;20120;-48
2024/02/04 00:24:48;;;;;;;22.48;8.52;;;;;;;13.75;85.67;102481.69;5029827;28;20033;-48
2024/02/04 00:27:13;;;;;;;30.13;9.18;;;;;;;13.82;85.04;102493.22;5029550;28;20326;-48
2024/02/04 00:29:38;;;;;;;32.47;8.65;;;;;;;13.79;85.24;102482.63;5029577;28;20582;-48
2024/02/04 00:32:04;;;;;;;23.65;8.80;;;;;;;13.84;84.00;102482.78;5029196;28;20499;-47
2024/02/04 00:34:29;;;;;;;23.33;8.82;;;;;;;13.95;84.10;102470.81;5030049;28;20034;-51
2024/02/04 00:36:55;;;;;;;22.77;9.10;;;;;;;13.81;85.17;102475.72;5027362;28;20125;-50
2024/02/04 00:39:20;;;;;;;30.13;8.45;;;;;;;13.91;84.20;102471.56;5029231;28;20034;-47
2024/02/04 00:41:45;;;;;;;25.70;8.65;;;;;;;14.04;83.20;102471.94;5029043;28;20037;-47
2024/02/04 00:44:11;;;;;;;24.38;8.50;;;;;;;14.27;82.89;102476.88;5029880;28;20033;-49
2024/02/04 00:46:36;;;;;;;22.40;8.52;;;;;;;14.51;82.03;102472.22;5029023;28;20033;-48
2024/02/04 00:49:01;;;;;;;25.52;8.95;;;;;;;14.29;82.45;102455.03;5028479;28;20041;-49
2024/02/04 00:51:26;;;;;;;29.65;9.35;;;;;;;13.82;84.09;102443.41;5029748;28;20038;-48
2024/02/04 00:53:52;;;;;;;25.65;8.90;;;;;;;13.78;84.65;102447.69;5027726;28;20044;-50
2024/02/04 00:56:18;;;;;;;27.05;9.60;;;;;;;14.01;83.39;102439.50;5029466;28;20030;-47
2024/02/04 00:58:43;;;;;;;29.67;9.18;;;;;;;13.71;84.31;102430.06;5028641;28;20091;-49
2024/02/04 01:01:09;;;;;;;27.23;9.70;;;;;;;13.50;85.91;102439.06;5029192;28;20082;-49
2024/02/04 01:03:34;;;;;;;27.75;10.18;;;;;;;13.75;85.01;102433.63;5029617;28;20033;-51
2024/02/04 01:05:59;;;;;;;28.25;9.52;;;;;;;13.69;84.72;102441.31;5029105;28;20052;-46
2024/02/04 01:08:25;;;;;;;32.13;9.82;;;;;;;13.55;84.80;102455.78;5027766;28;20037;-53
2024/02/04 01:10:51;;;;;;;23.02;8.70;;;;;;;13.99;83.58;102455.19;5029021;28;20041;-48
2024/02/04 01:13:17;;;;;;;25.92;8.80;;;;;;;14.35;82.15;102454.28;5029657;28;20515;-47
2024/02/04 01:15:42;;;;;;;23.23;8.60;;;;;;;14.26;82.34;102462.84;5029032;28;20045;-51
2024/02/04 01:18:08;;;;;;;25.02;9.07;;;;;;;13.58;84.58;102469.88;5028958;28;20514;-51
2024/02/04 01:20:33;;;;;;;24.23;9.07;;;;;;;13.63;84.47;102477.84;5029498;28;20045;-50
2024/02/04 01:22:58;;;;;;;28.27;9.98;;;;;;;13.62;85.06;102479.59;5028711;28;20045;-47
2024/02/04 01:25:23;;;;;;;29.58;9.57;;;;;;;13.91;83.44;102467.22;5029124;28;20103;-53
2024/02/04 01:27:49;;;;;;;34.85;9.85;;;;;;;13.74;83.28;102466.81;5028249;28;20055;-49
2024/02/04 01:30:14;;;;;;;29.75;9.82;;;;;;;13.93;83.15;102467.28;5029220;28;20038;-48
2024/02/04 01:32:39;;;;;;;27.13;10.18;;;;;;;13.70;83.54;102478.06;5029181;28;20167;-49
2024/02/04 01:35:05;;;;;;;30.23;9.88;;;;;;;13.98;83.06;102477.03;5028883;28;20112;-49
2024/02/04 01:37:31;;;;;;;28.88;9.93;;;;;;;13.69;83.71;102465.81;5028661;28;20037;-50
2024/02/04 01:39:56;;;;;;;38.83;10.13;;;;;;;13.65;83.44;102465.69;5028641;28;20124;-53
2024/02/04 01:42:21;;;;;;;34.28;9.88;;;;;;;13.63;83.22;102478.75;5029315;28;20148;-50
2024/02/04 01:44:47;;;;;;;28.40;9.20;;;;;;;13.25;84.93;102482.06;5030834;28;20030;-52
2024/02/04 01:47:12;;;;;;;31.00;10.75;;;;;;;13.48;84.36;102470.47;5030060;28;20029;-50
2024/02/04 01:49:38;;;;;;;27.80;9.60;;;;;;;13.26;85.08;102481.22;5029705;28;20120;-47
2024/02/04 01:52:05;;;;;;;29.55;9.52;;;;;;;13.64;82.87;102479.63;5029119;28;20395;-47
2024/02/04 01:54:31;;;;;;;29.77;10.18;;;;;;;13.07;84.24;102476.25;5027632;28;20464;-47
2024/02/04 01:56:58;;;;;;;32.17;10.40;;;;;;;13.49;83.89;102479.22;5028385;28;20029;-47
2024/02/04 01:59:30;;;;;;;29.17;9.60;;;;;;;13.21;84.57;102477.59;5028593;28;20036;-53
2024/02/04 02:01:59;;;;;;;26.33;9.95;;;;;;;13.28;83.82;102480.44;5029320;28;20064;-49
2024/02/04 02:04:25;;;;;;;28.95;9.05;;;;;;;13.62;83.06;102476.09;5033524;28;20064;-49
2024/02/04 02:06:52;;;;;;;27.92;9.10;;;;;;;13.74;81.96;102487.78;5032206;28;20672;-48
2024/02/04 02:09:17;;;;;;;23.35;8.55;;;;;;;13.63;82.36;102485.72;5032815;28;20580;-49
2024/02/04 02:11:50;;;;;;;27.90;9.65;;;;;;;13.45;82.70;102485.22;5032777;28;20117;-49
2024/02/04 02:14:25;;;;;;;36.28;9.25;;;;;;;13.32;83.62;102478.75;5032870;28;20040;-51
2024/02/04 02:16:51;;;;;;;24.50;9.10;;;;;;;13.61;82.58;102487.41;5031807;28;20450;-48
2024/02/04 02:19:38;;;;;;;23.20;8.45;;;;;;;13.48;82.43;102480.09;5032261;28;20029;-48
2024/02/04 02:22:25;;;;;;;28.52;8.65;;;;;;;13.34;82.77;102482.31;5032111;28;20034;-48
2024/02/04 02:24:51;;;;;;;25.50;8.40;;;;;;;13.28;82.92;102472.56;5031779;28;20431;-50
2024/02/04 02:27:16;;;;;;;20.38;6.63;;;;;;;13.27;81.96;102477.75;5032134;28;20111;-48
2024/02/04 02:29:42;;;;;;;21.38;6.82;;;;;;;13.52;80.84;102479.31;5032152;28;20465;-47
2024/02/04 02:32:07;;;;;;;19.88;7.05;;;;;;;13.47;81.68;102471.34;5048156;28;20044;-47
2024/02/04 02:34:33;;;;;;;22.35;7.70;;;;;;;13.53;81.30;102466.25;5032247;28;20026;-48
2024/02/04 02:37:07;;;;;;;22.67;7.78;;;;;;;13.89;80.24;102458.47;5031390;28;20061;-47
2024/02/04 02:39:48;;;;;;;20.95;7.25;;;;;;;13.53;80.79;102450.53;5031992;28;20038;-52
2024/02/04 02:42:16;;;;;;;21.67;7.50;;;;;;;13.66;80.97;102451.75;5035943;28;20039;-47
2024/02/04 02:44:42;;;;;;;25.70;7.78;;;;;;;13.44;81.51;102463.38;5035291;28;20124;-50
2024/02/04 02:47:09;;;;;;;22.60;7.53;;;;;;;13.38;80.93;102461.47;5051282;28;20029;-48
2024/02/04 02:49:34;;;;;;;19.45;7.40;;;;;;;13.37;81.92;102471.91;5051239;28;20064;-48
2024/02/04 02:51:59;;;;;;;20.17;7.28;;;;;;;13.57;80.98;102467.22;5051007;28;20491;-47
2024/02/04 02:54:25;;;;;;;23.33;7.60;;;;;;;13.54;81.78;102468.00;5045915;28;20060;-47
2024/02/04 02:56:50;;;;;;;21.42;7.25;;;;;;;13.59;81.09;102453.31;5031097;28;20034;-48
2024/02/04 02:59:15;;;;;;;22.55;7.28;;;;;;;13.46;81.55;102458.19;5031497;28;20103;-52
2024/02/04 03:01:41;;;;;;;21.83;7.32;;;;;;;13.21;82.20;102464.50;5031595;28;20033;-49
2024/02/04 03:04:06;;;;;;;23.33;7.25;;;;;;;13.74;81.45;102452.81;5031086;28;20037;-49
2024/02/04 03:06:32;;;;;;;20.42;7.43;;;;;;;13.72;80.70;102434.41;5031302;28;20107;-49
2024/02/04 03:08:57;;;;;;;27.55;7.80;;;;;;;13.56;81.74;102447.97;5029111;28;20045;-49
2024/02/04 03:11:22;;;;;;;26.70;7.80;;;;;;;13.67;81.69;102445.63;5031343;28;20053;-50
2024/02/04 03:13:48;;;;;;;25.83;8.40;;;;;;;13.49;82.18;102453.91;5029670;28;20535;-49
2024/02/04 03:16:13;;;;;;;28.83;8.10;;;;;;;13.59;81.64;102455.94;5031510;28;20040;-48
2024/02/04 03:18:42;;;;;;;22.95;7.70;;;;;;;13.64;81.09;102449.09;5030636;28;20037;-49
2024/02/04 03:21:15;;;;;;;25.50;8.05;;;;;;;13.15;83.28;102453.84;5031340;28;20108;-48
2024/02/04 03:23:42;;;;;;;20.58;7.78;;;;;;;13.80;81.78;102440.75;5031461;28;20040;-51
2024/02/04 03:26:07;;;;;;;24.80;7.57;;;;;;;13.58;81.99;102440.16;5031102;28;20037;-49
2024/02/04 03:28:33;;;;;;;23.75;8.30;;;;;;;13.58;81.47;102432.31;5030859;28;20060;-49
2024/02/04 03:30:58;;;;;;;28.75;8.48;;;;;;;13.50;82.41;102442.59;5030699;28;20029;-47
2024/02/04 03:33:23;;;;;;;27.30;8.70;;;;;;;13.43;82.25;102447.63;5030893;28;20025;-48
2024/02/04 03:35:49;;;;;;;25.92;8.32;;;;;;;13.22;83.81;102461.03;5029181;28;20040;-50
2024/02/04 03:38:14;;;;;;;22.30;7.85;;;;;;;13.89;81.02;102460.19;5030614;28;20068;-46
2024/02/04 03:40:42;;;;;;;23.70;8.40;;;;;;;13.31;83.39;102450.78;5031351;28;20041;-49
2024/02/04 03:43:10;;;;;;;27.35;8.82;;;;;;;13.27;83.96;102457.69;5047048;28;20034;-48
2024/02/04 03:45:36;;;;;;;31.45;9.00;;;;;;;13.17;84.88;102460.03;5031194;28;20036;-49
2024/02/04 03:48:01;;;;;;;33.65;9.27;;;;;;;13.06;84.58;102469.25;5034765;28;20045;-52
2024/02/04 03:50:27;;;;;;;32.22;9.70;;;;;;;13.17;84.48;102462.63;5033674;28;20484;-50
2024/02/04 03:52:53;;;;;;;31.98;9.90;;;;;;;13.10;85.51;102469.41;5030064;28;20116;-49
2024/02/04 03:55:18;;;;;;;31.60;9.00;;;;;;;13.40;83.66;102467.66;5030741;28;20404;-52
2024/02/04 03:57:43;;;;;;;25.92;9.43;;;;;;;13.11;84.53;102462.44;5029570;28;20491;-48
2024/02/04 04:00:09;;;;;;;23.02;8.63;;;;;;;13.70;82.92;102432.63;5030531;28;20040;-50
2024/02/04 04:02:34;;;;;;;31.48;9.35;;;;;;;13.21;83.51;102444.44;5030510;28;20037;-48
2024/02/04 04:05:00;;;;;;;32.08;9.23;;;;;;;13.20;83.72;102441.75;5028782;28;20033;-48
2024/02/04 04:07:25;;;;;;;22.85;8.98;;;;;;;13.17;84.14;102436.47;5029270;28;20027;-47
2024/02/04 04:09:50;;;;;;;27.88;8.25;;;;;;;13.33;84.03;102423.81;5030396;28;20044;-48
2024/02/04 04:12:16;;;;;;;33.63;8.73;;;;;;;13.57;82.33;102417.44;5030385;28;20488;-49
2024/02/04 04:14:41;;;;;;;29.02;9.63;;;;;;;13.31;83.08;102422.88;5030546;28;20041;-49
2024/02/04 04:17:06;;;;;;;24.42;8.18;;;;;;;13.36;83.46;102428.22;5028398;28;20049;-48
2024/02/04 04:19:33;;;;;;;25.98;8.43;;;;;;;13.45;83.22;102415.38;5030129;28;20033;-47
2024/02/04 04:21:59;;;;;;;22.42;8.48;;;;;;;13.38;83.70;102410.81;5029352;28;20087;-47
2024/02/04 04:24:25;;;;;;;25.80;8.65;;;;;;;13.64;82.05;102404.53;5029822;28;20095;-49
2024/02/04 04:26:50;;;;;;;30.58;9.52;;;;;;;13.16;84.81;102412.00;5029817;28;20735;-51
2024/02/04 04:29:15;;;;;;;34.40;9.48;;;;;;;13.08;84.65;102420.44;5029761;28;20094;-48
2024/02/04 04:31:40;;;;;;;27.75;9.88;;;;;;;13.01;85.01;102412.41;5029737;28;20037;-47
2024/02/04 04:34:06;;;;;;;30.73;9.68;;;;;;;12.83;86.27;102406.66;5029467;28;20542;-49
2024/02/04 04:36:31;;;;;;;30.77;9.98;;;;;;;13.24;85.19;102410.44;5027816;28;20068;-47
2024/02/04 04:38:56;;;;;;;31.13;11.02;;;;;;;13.00;85.89;102407.13;5029038;28;20029;-46
2024/02/04 04:41:22;;;;;;;36.05;10.90;;;;;;;13.38;84.48;102403.84;5029575;28;20033;-48
2024/02/04 04:43:47;;;;;;;40.08;11.07;;;;;;;13.26;84.35;102400.03;5029416;28;20041;-48
2024/02/04 04:46:12;;;;;;;32.75;11.20;;;;;;;13.32;84.90;102406.31;5028673;28;20509;-49
2024/02/04 04:48:38;;;;;;;43.65;12.40;;;;;;;12.89;86.35;102406.84;5031653;28;20044;-48
2024/02/04 04:51:03;;;;;;;42.25;13.00;;;;;;;13.12;85.16;102411.81;5029794;28;20033;-46
2024/02/04 04:53:28;;;;;;;36.00;12.30;;;;;;;13.23;84.45;102413.06;5029798;28;20034;-48
2024/02/04 04:55:53;;;;;;;35.92;11.85;;;;;;;13.21;84.52;102392.06;5029195;28;20037;-47
2024/02/04 04:58:19;;;;;;;31.35;12.57;;;;;;;13.42;83.58;102378.59;5029103;28;20064;-49
2024/02/04 05:00:44;;;;;;;37.42;11.65;;;;;;;13.20;84.78;102384.16;5029175;28;20047;-49
2024/02/04 05:03:09;;;;;;;38.55;13.32;;;;;;;12.97;85.68;102389.63;5029656;28;20542;-47
2024/02/04 05:05:35;;;;;;;43.75;13.70;;;;;;;13.05;85.57;102407.28;5029702;28;20068;-47
2024/02/04 05:08:00;;;;;;;36.47;13.10;;;;;;;13.01;85.73;102404.56;5028785;28;20029;-46
2024/02/04 05:10:25;;;;;;;38.63;13.10;;;;;;;13.51;83.60;102397.19;5029835;28;20078;-48
2024/02/04 05:12:50;;;;;;;34.00;12.07;;;;;;;13.31;84.21;102401.91;5029569;28;20037;-46
2024/02/04 05:15:16;;;;;;;46.70;12.98;;;;;;;12.80;86.73;102393.50;5029757;28;20053;-47
2024/02/04 05:17:41;;;;;;;34.08;11.52;;;;;;;13.10;85.48;102387.34;5029612;28;20041;-46
2024/02/04 05:20:07;;;;;;;41.35;11.60;;;;;;;13.03;85.91;102381.03;5029455;28;20025;-48
2024/02/04 05:22:33;;;;;;;31.83;11.40;;;;;;;12.81;86.16;102378.66;5029592;28;20076;-46
2024/02/04 05:24:58;;;;;;;36.17;11.15;;;;;;;13.23;84.80;102366.81;5028906;28;20025;-48
2024/02/04 05:27:24;;;;;;;36.28;11.75;;;;;;;12.83;86.26;102366.50;5029032;28;20116;-50
2024/02/04 05:29:49;;;;;;;29.80;11.15;;;;;;;12.99;85.66;102368.72;5029178;28;20444;-47
2024/02/04 05:32:14;;;;;;;41.03;11.63;;;;;;;12.99;85.41;102363.50;5028450;28;20033;-48
2024/02/04 05:34:39;;;;;;;33.75;11.15;;;;;;;12.81;86.31;102383.91;5029544;28;20036;-49
2024/02/04 05:37:05;;;;;;;30.08;11.57;;;;;;;12.74;86.82;102380.25;5029497;28;20033;-52
2024/02/04 05:39:30;;;;;;;26.75;10.85;;;;;;;12.55;87.21;102370.97;5033471;28;20033;-48
2024/02/04 05:41:55;;;;;;;32.47;10.30;;;;;;;12.84;86.25;102361.34;5033947;28;20129;-48
2024/02/04 05:44:21;;;;;;;30.67;10.70;;;;;;;12.66;87.08;102368.66;5033436;28;20676;-48
2024/02/04 05:46:46;;;;;;;30.92;10.30;;;;;;;12.84;86.68;102360.44;5032660;28;20087;-49
2024/02/04 05:49:11;;;;;;;30.98;9.68;;;;;;;12.57;87.22;102358.81;5032819;28;20091;-48
2024/02/04 05:51:40;;;;;;;31.63;9.52;;;;;;;12.76;85.98;102351.47;5032706;28;20116;-51
2024/02/04 05:54:06;;;;;;;30.02;9.30;;;;;;;12.87;85.41;102343.06;5032328;28;20030;-50
2024/02/04 05:56:32;;;;;;;23.73;8.60;;;;;;;13.01;85.73;102357.44;5032709;28;20515;-51
2024/02/04 05:58:57;;;;;;;28.80;8.30;;;;;;;12.85;86.17;102355.25;5031879;28;20094;-49
2024/02/04 06:01:23;;;;;;;32.05;7.97;;;;;;;12.99;84.89;102346.03;5032469;28;20029;-50
2024/02/04 06:03:48;;;;;;;21.98;8.27;;;;;;;12.54;86.17;102345.66;5031195;28;20029;-50
2024/02/04 06:06:19;;;;;;;23.20;7.20;;;;;;;12.83;85.95;102348.19;5032578;28;20242;-49
2024/02/04 06:08:45;;;;;;;20.33;7.90;;;;;;;12.93;85.23;102342.34;5031844;28;20056;-50
2024/02/04 06:11:11;;;;;;;22.52;7.15;;;;;;;13.22;84.58;102335.31;5032180;28;20504;-50
2024/02/04 06:13:41;;;;;;;23.33;6.85;;;;;;;12.94;85.79;102344.13;5032406;28;20167;-52
2024/02/04 06:16:07;;;;;;;26.50;7.45;;;;;;;13.01;85.02;102339.09;5031663;28;20707;-49
2024/02/04 06:18:33;;;;;;;21.55;6.90;;;;;;;13.01;85.02;102339.09;5031738;28;20029;-47
2024/02/04 06:20:58;;;;;;;18.77;6.97;;;;;;;13.20;85.07;102337.91;5031646;28;20098;-50
2024/02/04 06:23:23;;;;;;;19.27;6.50;;;;;;;12.97;85.02;102332.03;5032167;28;20045;-47
2024/02/04 06:25:49;;;;;;;16.05;6.35;;;;;;;13.26;82.80;102319.72;5030612;28;20502;-47
2024/02/04 06:28:14;;;;;;;17.75;6.60;;;;;;;13.18;85.19;102338.69;5031844;28;20149;-50
2024/02/04 06:30:39;;;;;;;17.38;6.53;;;;;;;13.11;84.67;102336.75;5032151;28;20041;-46
2024/02/04 06:33:05;;;;;;;18.33;6.25;;;;;;;13.42;83.71;102335.84;5031757;28;20040;-53
2024/02/04 06:35:31;;;;;;;16.05;6.22;;;;;;;13.41;83.43;102329.72;5032366;28;20065;-47
2024/02/04 06:37:57;;;;;;;17.38;6.35;;;;;;;13.54;83.38;102333.53;5031049;28;20626;-50
2024/02/04 06:40:22;;;;;;;16.52;6.80;;;;;;;13.37;84.62;102347.06;5032409;28;20098;-49
2024/02/04 06:42:47;;;;;;;18.80;6.70;;;;;;;13.23;85.07;102337.09;5031889;28;20368;-49
2024/02/04 06:45:13;;;;;;;18.05;6.80;;;;;;;13.53;84.41;102334.38;5031716;28;20037;-51
2024/02/04 06:47:38;;;;;;;14.23;6.32;;;;;;;13.47;82.90;102342.97;5029670;28;20049;-48
2024/02/04 06:50:05;;;;;;;15.70;5.80;;;;;;;13.70;83.05;102335.66;5031387;28;20124;-48
2024/02/04 06:52:31;;;;;;;17.58;5.95;;;;;;;12.95;85.28;102344.19;5031619;28;20029;-49
2024/02/04 06:54:56;;;;;;;14.07;5.68;;;;;;;13.28;83.92;102335.47;5030012;28;20056;-48
2024/02/04 06:57:21;;;;;;;14.20;5.32;;;;;;;13.32;83.96;102346.06;5031102;28;20113;-50
2024/02/04 06:59:47;;;;;;;13.98;5.28;;;;;;;13.38;83.37;102342.72;5031165;28;20116;-50
2024/02/04 07:02:12;;;;;;;14.43;5.05;;;;;;;13.47;82.20;102340.34;5030456;28;20116;-47
2024/02/04 07:04:37;;;;;;;12.80;5.07;;;;;;;13.25;83.53;102341.50;5030505;28;20096;-47
2024/02/04 07:07:03;;;;;;;14.88;5.53;;;;;;;13.30;83.05;102326.78;5030093;28;20030;-49
2024/02/04 07:09:28;;;;;;;13.43;4.88;;;;;;;13.45;83.23;102320.19;5031415;28;20038;-50
2024/02/04 07:11:53;;;;;;;16.40;5.20;;;;;;;13.14;83.91;102319.41;5031249;28;20034;-50
2024/02/04 07:14:19;;;;;;;11.05;4.55;;;;;;;13.45;83.52;102326.31;5031459;28;20049;-48
2024/02/04 07:16:45;;;;;;;13.82;5.03;;;;;;;13.33;83.26;102310.28;5030792;28;20416;-48
2024/02/04 07:19:10;;;;;;;10.60;4.97;;;;;;;13.07;86.13;102311.31;5030844;28;20116;-49
2024/02/04 07:21:35;;;;;;;14.80;6.00;;;;;;;13.28;85.00;102310.19;5031364;28;20090;-47
2024/02/04 07:24:01;;;;;;;18.55;6.82;;;;;;;13.33;84.99;102292.84;5031535;28;20125;-49
2024/02/04 07:26:26;;;;;;;17.80;7.40;;;;;;;13.67;83.66;102298.88;5031672;28;20451;-46
2024/02/04 07:28:52;;;;;;;17.25;6.65;;;;;;;13.25;85.21;102298.72;5030654;28;20449;-48
2024/02/04 07:31:18;;;;;;;21.48;6.53;;;;;;;13.45;85.42;102307.97;5031154;28;20487;-48
2024/02/04 07:33:43;;;;;;;20.83;6.28;;;;;;;13.18;85.35;102318.63;5030749;28;20052;-47
2024/02/04 07:36:10;;;;;;;19.10;6.03;;;;;;;13.00;87.11;102311.16;5031439;28;20411;-50
2024/02/04 07:38:35;;;;;;;14.15;5.30;;;;;;;12.88;87.33;102323.91;5030726;28;20377;-47
2024/02/04 07:41:01;;;;;;;19.27;5.05;;;;;;;13.34;84.83;102318.19;5030778;28;20141;-51
2024/02/04 07:43:26;;;;;;;15.43;5.22;;;;;;;12.99;86.74;102325.09;5031584;28;20030;-48
2024/02/04 07:45:51;;;;;;;14.93;5.63;;;;;;;12.81;87.56;102313.22;5030951;28;20084;-50
2024/02/04 07:48:17;;;;;;;18.65;5.47;;;;;;;13.32;85.53;102314.63;5030548;28;20091;-48
2024/02/04 07:50:42;;;;;;;18.27;5.05;;;;;;;13.33;85.03;102307.66;5030640;28;20033;-48
2024/02/04 07:53:08;;;;;;;18.77;5.10;;;;;;;13.22;85.66;102303.91;5046480;28;20076;-49
2024/02/04 07:55:34;;;;;;;14.73;4.32;;;;;;;13.32;84.67;102312.00;5030743;28;20029;-52
2024/02/04 07:57:59;;;;;;;17.25;4.97;;;;;;;13.12;85.76;102300.13;5029743;28;20038;-46
2024/02/04 08:00:24;;;;;;;15.45;4.70;;;;;;;13.27;85.09;102312.75;5031239;28;20514;-48
2024/02/04 08:02:50;;;;;;;15.32;4.57;;;;;;;13.53;83.74;102302.91;5031495;28;20116;-47
2024/02/04 08:05:15;;;;;;;12.57;4.30;;;;;;;13.55;83.95;102320.44;5031231;28;20105;-47
2024/02/04 08:07:41;;;;;;;12.82;3.78;;;;;;;13.25;85.16;102319.66;5030889;28;20029;-47
2024/02/04 08:10:07;;;;;;;10.10;3.33;;;;;;;13.32;85.82;102304.16;5030029;28;20053;-47
2024/02/04 08:12:32;;;;;;;14.88;3.35;;;;;;;13.43;84.91;102322.75;5030540;28;20069;-48
2024/02/04 08:14:58;;;;;;;9.52;3.30;;;;;;;13.30;85.61;102318.94;5012892;28;20030;-49
2024/02/04 08:17:23;;;;;;;9.63;3.50;;;;;;;13.20;84.85;102332.66;5030529;28;20130;-47
2024/02/04 08:19:48;;;;;;;9.60;2.90;;;;;;;13.30;84.90;102326.78;5030181;28;20053;-52
2024/02/04 08:22:14;;;;;;;13.43;2.67;;;;;;;13.40;84.41;102320.97;5030374;28;20037;-48
2024/02/04 08:24:39;;;;;;;12.93;3.53;;;;;;;13.25;84.84;102320.56;5030309;28;20043;-48
2024/02/04 08:27:05;;;;;;;10.65;2.50;;;;;;;13.42;84.37;102320.97;5029427;28;20091;-49
2024/02/04 08:29:30;;;;;;;10.75;2.85;;;;;;;13.48;83.74;102309.78;5029731;28;20060;-48
2024/02/04 08:31:56;;;;;;;11.88;2.70;;;;;;;13.70;83.56;102315.56;5029187;28;20037;-51
2024/02/04 08:34:23;;;;;;;7.15;2.67;;;;;;;13.58;83.33;102302.19;5030081;28;20052;-53
2024/02/04 08:36:49;;;;;;;9.38;2.50;;;;;;;13.39;84.71;102311.31;5029293;28;20033;-50
2024/02/04 08:39:15;;;;;;;9.48;2.72;;;;;;;13.78;82.27;102306.13;5029647;28;20464;-53
2024/02/04 08:41:41;;;;;;;8.88;2.40;;;;;;;13.42;83.68;102300.03;5029913;28;20061;-49
2024/02/04 08:44:06;;;;;;;10.63;2.40;;;;;;;13.85;82.16;102294.06;5029232;28;20639;-49
2024/02/04 08:46:32;;;;;;;9.95;2.88;;;;;;;13.69;82.81;102284.06;5029679;28;20113;-49
2024/02/04 08:48:57;;;;;;;11.35;2.97;;;;;;;13.54;84.12;102302.06;5028620;28;20041;-48
2024/02/04 08:51:22;;;;;;;6.72;2.05;;;;;;;13.77;82.89;102291.28;5029611;28;20030;-50
2024/02/04 08:53:48;;;;;;;6.65;2.10;;;;;;;13.96;81.71;102295.19;5029204;28;20056;-51
2024/02/04 08:56:13;;;;;;;5.70;1.85;;;;;;;14.23;80.64;102290.53;5029601;28;20029;-51
2024/02/04 08:58:38;;;;;;;4.82;1.48;;;;;;;13.60;82.38;102286.50;5029328;28;20033;-51
2024/02/04 09:01:05;;;;;;;5.93;1.83;;;;;;;13.52;83.55;102294.19;5029394;28;20041;-49
2024/02/04 09:03:30;;;;;;;6.15;1.77;;;;;;;13.57;82.77;102302.13;5028650;28;20055;-50
2024/02/04 09:05:57;;;;;;;7.55;1.88;;;;;;;13.40;83.51;102305.25;5029032;28;20029;-47
2024/02/04 09:08:22;;;;;;;7.32;1.70;;;;;;;13.81;81.15;102314.06;5028986;28;20171;-48
2024/02/04 09:10:47;;;;;;;7.72;1.65;;;;;;;13.57;82.60;102310.00;5031552;28;20132;-49
2024/02/04 09:13:13;;;;;;;13.55;1.75;;;;;;;14.22;80.34;102291.38;5033413;28;20025;-53
2024/02/04 09:15:38;;;;;;;5.97;1.40;;;;;;;13.53;82.18;102302.91;5033399;28;20442;-53
2024/02/04 09:18:04;;;;;;;4.95;1.58;;;;;;;14.00;81.33;102298.75;5032535;28;20041;-49
2024/02/04 09:20:29;;;;;;;5.90;1.50;;;;;;;13.81;81.47;102292.22;5033733;28;20033;-51
2024/02/04 09:22:54;;;;;;;4.13;1.40;;;;;;;14.06;80.40;102283.16;5032991;28;20044;-49
2024/02/04 09:25:20;;;;;;;7.63;1.52;;;;;;;13.84;81.04;102304.53;5033489;28;20039;-52
2024/02/04 09:27:45;;;;;;;5.88;1.40;;;;;;;13.28;82.30;102304.06;5032643;28;20034;-50
2024/02/04 09:30:11;;;;;;;3.22;1.20;;;;;;;14.08;79.67;102316.44;5031969;28;20553;-53
2024/02/04 09:32:37;;;;;;;5.30;1.20;;;;;;;13.67;80.50;102301.50;5033880;28;20097;-47
2024/02/04 09:35:02;;;;;;;4.28;1.35;;;;;;;14.23;79.04;102310.63;5033888;28;20116;-51
2024/02/04 09:37:27;;;;;;;5.80;1.30;;;;;;;13.80;79.79;102307.06;5032814;28;20488;-49
2024/02/04 09:39:53;;;;;;;4.13;1.48;;;;;;;13.90;80.10;102317.78;5032866;28;20267;-49
2024/02/04 09:42:22;;;;;;;3.20;1.27;;;;;;;14.07;80.52;102308.53;5033457;28;20029;-51
2024/02/04 09:44:49;;;;;;;5.57;1.63;;;;;;;13.90;81.44;102320.41;5032991;28;20044;-49
2024/02/04 09:47:14;;;;;;;6.82;2.03;;;;;;;13.89;83.17;102306.41;5032999;28;20034;-53
2024/02/04 09:49:40;;;;;;;8.40;3.17;;;;;;;13.54;84.25;102315.19;5032765;28;20041;-51
2024/02/04 09:52:09;;;;;;;6.70;2.42;;;;;;;13.30;86.18;102308.47;5032420;28;20530;-51
2024/02/04 09:54:49;;;;;;;11.32;3.50;;;;;;;13.15;85.92;102313.34;5033121;28;20098;-51
2024/02/04 09:57:15;;;;;;;7.60;3.15;;;;;;;13.16;86.89;102308.97;5039782;28;20411;-50
2024/02/04 09:59:40;;;;;;;11.27;3.38;;;;;;;13.40;87.07;102306.97;5032300;28;20180;-48
2024/02/04 10:02:07;;;;;;;13.43;3.28;;;;;;;13.04;86.58;102298.16;5032131;28;20540;-50
2024/02/04 10:04:33;;;;;;;13.18;4.10;;;;;;;13.11;88.06;102314.06;5033057;28;20033;-50
2024/02/04 10:06:59;;;;;;;11.85;3.70;;;;;;;13.50;86.62;102313.31;5032020;28;20124;-50
2024/02/04 10:09:24;;;;;;;8.98;3.67;;;;;;;13.08;87.51;102305.25;5032617;28;20444;-48
2024/02/04 10:11:49;;;;;;;9.75;3.38;;;;;;;13.38;87.89;102308.66;5032105;28;20144;-50
2024/02/04 10:14:15;;;;;;;13.50;3.38;;;;;;;13.75;86.21;102302.56;5032405;28;20060;-51
2024/02/04 10:16:41;;;;;;;12.70;3.30;;;;;;;13.54;86.16;102296.84;5032243;28;20087;-48
2024/02/04 10:19:07;;;;;;;11.82;3.08;;;;;;;13.39;86.72;102311.31;5031805;28;20057;-49
2024/02/04 10:21:32;;;;;;;11.23;2.60;;;;;;;13.37;87.50;102309.50;5031871;28;20041;-52
2024/02/04 10:23:58;;;;;;;11.52;2.58;;;;;;;13.19;88.04;102304.69;5032980;28;20037;-48
2024/02/04 10:26:31;;;;;;;9.60;2.40;;;;;;;13.60;86.89;102308.31;5033192;28;20079;-51
2024/02/04 10:28:57;;;;;;;6.38;2.40;;;;;;;13.57;86.13;102308.25;5031133;28;20510;-48
2024/02/04 10:31:23;;;;;;;5.45;1.77;;;;;;;13.49;86.68;102308.91;5033392;28;20041;-48
2024/02/04 10:33:49;;;;;;;6.68;1.98;;;;;;;14.01;85.04;102311.03;5032386;28;20039;-52
2024/02/04 10:36:15;;;;;;;8.52;1.98;;;;;;;13.71;85.25;102306.88;5032701;28;20034;-55
2024/02/04 10:38:40;;;;;;;9.73;2.08;;;;;;;13.59;86.03;102295.22;5031771;28;20037;-52
2024/02/04 10:41:06;;;;;;;8.48;1.70;;;;;;;13.64;84.71;102309.28;5032848;28;20048;-46
2024/02/04 10:43:34;;;;;;;9.98;2.00;;;;;;;13.45;85.48;102304.47;5033153;28;20120;-48
2024/02/04 10:46:07;;;;;;;8.88;1.85;;;;;;;13.38;85.13;102303.41;5032255;28;20683;-50
2024/02/04 10:48:41;;;;;;;6.78;1.83;;;;;;;13.79;84.02;102320.13;5032010;28;20041;-50
2024/02/04 10:51:12;;;;;;;12.23;1.67;;;;;;;13.86;84.22;102310.66;5031240;28;20037;-52
2024/02/04 10:53:39;;;;;;;7.68;1.80;;;;;;;13.72;83.80;102311.22;5031813;28;20033;-52
2024/02/04 10:56:06;;;;;;;6.47;1.58;;;;;;;13.91;83.21;102307.28;5031372;28;20032;-51
2024/02/04 10:58:33;;;;;;;7.95;1.70;;;;;;;13.48;84.87;102310.66;5030927;28;20439;-52
2024/02/04 11:00:59;;;;;;;7.50;2.33;;;;;;;13.77;84.16;102307.00;5030822;28;20049;-48
2024/02/04 11:03:27;;;;;;;8.82;1.73;;;;;;;14.09;82.76;102304.19;5031588;28;20033;-54
2024/02/04 11:05:53;;;;;;;9.43;2.05;;;;;;;13.71;83.81;102305.97;5031127;28;20041;-50
2024/02/04 11:08:20;;;;;;;11.32;1.92;;;;;;;14.03;82.21;102306.69;5031101;28;20549;-50
2024/02/04 11:10:45;;;;;;;7.93;2.13;;;;;;;13.90;81.87;102304.66;5030919;28;20116;-51